createdAt,value
2023-03-19T00:02:22.608Z,100660.16
2023-03-19T00:04:50.528Z,100662.88
2023-03-19T00:07:18.490Z,100669.97
2023-03-19T00:09:48.332Z,100668.09
2023-03-19T00:12:17.736Z,100662.66
2023-03-19T00:14:45.707Z,100660.78
2023-03-19T00:17:13.668Z,100663.50
2023-03-19T00:19:41.857Z,100662.66
2023-03-19T00:22:09.911Z,100662.66
2023-03-19T00:24:37.812Z,100663.50
2023-03-19T00:27:05.831Z,100663.50
2023-03-19T00:29:35.430Z,100662.66
2023-03-19T00:32:03.550Z,100663.72
2023-03-19T00:34:31.669Z,100666.44
2023-03-19T00:36:59.711Z,100669.16
2023-03-19T00:39:27.918Z,100668.94
2023-03-19T00:41:55.838Z,100670.81
2023-03-19T00:44:24.331Z,100656.44
2023-03-19T00:46:53.664Z,100648.53
2023-03-19T00:49:22.328Z,100662.66
2023-03-19T00:51:50.407Z,100666.44
2023-03-19T00:54:18.347Z,100667.25
2023-03-19T00:56:46.255Z,100668.31
2023-03-19T00:59:14.471Z,100617.72
2023-03-19T01:01:42.419Z,100671.84
2023-03-19T01:04:13.055Z,100668.31
2023-03-19T01:06:41.017Z,100665.38
2023-03-19T01:09:09.229Z,100671.03
2023-03-19T01:11:37.157Z,100670.19
2023-03-19T01:14:05.133Z,100637.50
2023-03-19T01:16:34.334Z,100665.81
2023-03-19T01:19:02.628Z,100658.50
2023-03-19T01:21:31.961Z,100673.94
2023-03-19T01:23:59.862Z,100662.28
2023-03-19T01:26:27.871Z,100662.28
2023-03-19T01:28:56.419Z,100660.59
2023-03-19T01:31:24.360Z,100656.84
2023-03-19T01:33:52.731Z,100652.22
2023-03-19T01:36:20.615Z,100653.31
2023-03-19T01:38:50.161Z,100651.63
2023-03-19T01:41:18.437Z,100646.03
2023-03-19T01:43:46.380Z,100653.50
2023-03-19T01:46:17.886Z,100627.69
2023-03-19T01:48:47.584Z,100649.97
2023-03-19T01:51:17.347Z,100623.31
2023-03-19T01:53:47.316Z,100649.75
2023-03-19T01:56:18.353Z,100650.59
2023-03-19T01:58:47.571Z,100602.09
2023-03-19T02:01:15.836Z,100579.19
2023-03-19T02:03:43.867Z,100647.88
2023-03-19T02:06:12.320Z,100594.59
2023-03-19T02:08:40.272Z,100638.06
2023-03-19T02:11:08.527Z,100649.75
2023-03-19T02:13:37.816Z,100642.66
2023-03-19T02:16:06.018Z,100640.16
2023-03-19T02:18:33.887Z,100621.66
2023-03-19T02:21:04.647Z,100607.50
2023-03-19T02:23:35.902Z,100654.34
2023-03-19T02:26:09.356Z,100655.38
2023-03-19T02:28:38.847Z,100653.50
2023-03-19T02:31:07.437Z,100610.84
2023-03-19T02:33:35.568Z,100646.22
2023-03-19T02:36:03.666Z,100647.25
2023-03-19T02:38:32.035Z,100652.69
2023-03-19T02:41:01.928Z,100643.31
2023-03-19T02:43:31.766Z,100626.41
2023-03-19T02:45:59.669Z,100644.53
2023-03-19T02:48:28.196Z,100645.38
2023-03-19T02:50:56.761Z,100644.53
2023-03-19T02:53:24.712Z,100638.53
2023-03-19T02:55:52.616Z,100643.09
2023-03-19T02:58:20.878Z,100657.25
2023-03-19T03:00:52.036Z,100649.13
2023-03-19T03:03:20.089Z,100629.19
2023-03-19T03:05:48.017Z,100658.94
2023-03-19T03:08:15.979Z,100648.91
2023-03-19T03:10:44.196Z,100657.25
2023-03-19T03:13:12.081Z,100633.31
2023-03-19T03:15:39.997Z,100647.44
2023-03-19T03:18:09.372Z,100651.84
2023-03-19T03:20:37.800Z,100612.91
2023-03-19T03:23:05.790Z,100658.09
2023-03-19T03:25:33.726Z,100656.44
2023-03-19T03:28:01.624Z,100642.69
2023-03-19T03:30:29.826Z,100623.13
2023-03-19T03:32:58.126Z,100664.56
2023-03-19T03:35:27.549Z,100646.88
2023-03-19T03:37:55.936Z,100668.97
2023-03-19T03:40:24.140Z,100665.41
2023-03-19T03:42:54.325Z,100664.56
2023-03-19T03:45:22.245Z,100672.72
2023-03-19T03:47:51.011Z,100677.09
2023-03-19T03:50:19.286Z,100676.25
2023-03-19T03:52:48.560Z,100678.97
2023-03-19T03:55:16.723Z,100684.41
2023-03-19T03:57:44.619Z,100678.97
2023-03-19T04:00:14.300Z,100681.69
2023-03-19T04:02:42.237Z,100687.97
2023-03-19T04:05:10.524Z,100682.13
2023-03-19T04:07:38.491Z,100689.00
2023-03-19T04:10:09.533Z,100686.09
2023-03-19T04:12:38.171Z,100696.09
2023-03-19T04:15:08.815Z,100685.25
2023-03-19T04:17:46.030Z,100686.09
2023-03-19T04:20:16.454Z,100683.38
2023-03-19T04:22:44.406Z,100677.09
2023-03-19T04:25:13.731Z,100684.84
2023-03-19T04:27:41.621Z,100684.84
2023-03-19T04:30:13.544Z,100690.47
2023-03-19T04:32:41.540Z,100688.59
2023-03-19T04:35:09.984Z,100696.50
2023-03-19T04:37:37.912Z,100692.13
2023-03-19T04:40:07.441Z,100692.94
2023-03-19T04:42:36.726Z,100599.44
2023-03-19T04:45:05.140Z,100699.22
2023-03-19T04:47:33.009Z,100688.34
2023-03-19T04:50:00.915Z,100693.78
2023-03-19T04:52:29.365Z,100697.31
2023-03-19T04:54:57.249Z,100702.75
2023-03-19T04:57:25.159Z,100679.88
2023-03-19T04:59:54.738Z,100717.16
2023-03-19T05:02:23.310Z,100712.56
2023-03-19T05:04:51.261Z,100716.13
2023-03-19T05:07:19.164Z,100719.88
2023-03-19T05:09:47.770Z,100718.00
2023-03-19T05:12:15.918Z,100714.44
2023-03-19T05:14:43.902Z,100716.97
2023-03-19T05:17:15.434Z,100711.53
2023-03-19T05:19:43.874Z,100725.31
2023-03-19T05:22:11.882Z,100721.75
2023-03-19T05:24:39.801Z,100720.72
2023-03-19T05:27:07.762Z,100726.97
2023-03-19T05:29:36.258Z,100721.53
2023-03-19T05:32:05.129Z,100725.09
2023-03-19T05:34:34.419Z,100725.31
2023-03-19T05:37:02.288Z,100727.81
2023-03-19T05:39:30.516Z,100728.22
2023-03-19T05:41:58.423Z,100741.38
2023-03-19T05:44:26.380Z,100739.50
2023-03-19T05:46:54.380Z,100735.13
2023-03-19T05:49:22.572Z,100731.78
2023-03-19T05:51:52.060Z,100738.66
2023-03-19T05:54:20.002Z,100738.66
2023-03-19T05:56:47.948Z,100746.81
2023-03-19T05:59:16.113Z,100752.03
2023-03-19T06:01:44.033Z,100748.69
2023-03-19T06:04:12.018Z,100755.78
2023-03-19T06:06:39.986Z,100758.50
2023-03-19T06:09:09.910Z,100758.72
2023-03-19T06:11:39.587Z,100765.81
2023-03-19T06:14:07.594Z,100748.50
2023-03-19T06:16:35.486Z,100762.25
2023-03-19T06:19:03.660Z,100771.44
2023-03-19T06:21:31.547Z,100760.19
2023-03-19T06:23:59.436Z,100772.28
2023-03-19T06:26:28.757Z,100758.97
2023-03-19T06:28:57.470Z,100781.25
2023-03-19T06:31:25.418Z,100788.38
2023-03-19T06:33:53.394Z,100768.97
2023-03-19T06:36:21.725Z,100782.94
2023-03-19T06:38:49.621Z,100782.09
2023-03-19T06:41:17.859Z,100774.81
2023-03-19T06:43:47.543Z,100780.44
2023-03-19T06:46:15.493Z,100782.09
2023-03-19T06:48:43.526Z,100782.94
2023-03-19T06:51:11.759Z,100751.69
2023-03-19T06:53:39.845Z,100787.53
2023-03-19T06:56:07.807Z,100783.97
2023-03-19T06:58:36.328Z,100796.50
2023-03-19T07:01:06.208Z,100795.66
2023-03-19T07:03:34.123Z,100790.44
2023-03-19T07:06:02.097Z,100785.84
2023-03-19T07:08:30.244Z,100796.50
2023-03-19T07:10:58.663Z,100798.38
2023-03-19T07:13:26.603Z,100800.25
2023-03-19T07:15:54.562Z,100803.81
2023-03-19T07:18:24.645Z,100808.41
2023-03-19T07:20:53.058Z,100806.53
2023-03-19T07:23:21.061Z,100811.13
2023-03-19T07:25:48.974Z,100816.56
2023-03-19T07:28:16.862Z,100820.09
2023-03-19T07:30:45.070Z,100820.94
2023-03-19T07:33:13.032Z,100825.53
2023-03-19T07:35:42.348Z,100780.28
2023-03-19T07:38:10.390Z,100830.13
2023-03-19T07:40:40.021Z,100825.72
2023-03-19T07:43:11.261Z,100804.25
2023-03-19T07:45:39.222Z,100829.06
2023-03-19T07:48:07.515Z,100828.25
2023-03-19T07:50:35.718Z,100828.66
2023-03-19T07:53:05.166Z,100803.22
2023-03-19T07:55:33.044Z,100820.94
2023-03-19T07:58:01.069Z,100835.34
2023-03-19T08:00:29.313Z,100839.31
2023-03-19T08:02:57.271Z,100823.25
2023-03-19T08:05:25.230Z,100842.66
2023-03-19T08:07:53.175Z,100840.78
2023-03-19T08:10:22.973Z,100846.19
2023-03-19T08:12:50.921Z,100832.63
2023-03-19T08:15:18.927Z,100834.50
2023-03-19T08:17:47.037Z,100828.88
2023-03-19T08:20:16.870Z,100832.00
2023-03-19T08:22:44.984Z,100839.94
2023-03-19T08:25:13.018Z,100792.38
2023-03-19T08:27:42.472Z,100838.06
2023-03-19T08:30:14.358Z,100853.28
2023-03-19T08:32:42.319Z,100835.56
2023-03-19T08:35:11.135Z,100853.50
2023-03-19T08:37:39.058Z,100857.91
2023-03-19T08:40:08.755Z,100863.31
2023-03-19T08:42:38.900Z,100846.66
2023-03-19T08:45:11.684Z,100870.63
2023-03-19T08:47:39.584Z,100861.41
2023-03-19T08:50:08.597Z,100861.41
2023-03-19T08:52:36.528Z,100862.25
2023-03-19T08:55:04.654Z,100742.97
2023-03-19T08:57:32.826Z,100866.03
2023-03-19T09:00:01.106Z,100861.41
2023-03-19T09:02:30.476Z,100852.28
2023-03-19T09:04:58.445Z,100859.53
2023-03-19T09:07:26.387Z,100861.41
2023-03-19T09:09:54.579Z,100862.25
2023-03-19T09:12:22.473Z,100861.41
2023-03-19T09:14:50.375Z,100870.41
2023-03-19T09:17:18.287Z,100844.97
2023-03-19T09:19:47.936Z,100868.75
2023-03-19T09:22:15.833Z,100860.41
2023-03-19T09:24:43.909Z,100878.34
2023-03-19T09:27:11.916Z,100841.41
2023-03-19T09:29:40.129Z,100840.78
2023-03-19T09:32:08.141Z,100776.94
2023-03-19T09:34:36.031Z,100873.13
2023-03-19T09:37:05.368Z,100875.00
2023-03-19T09:39:33.679Z,100883.13
2023-03-19T09:42:07.580Z,100870.44
2023-03-19T09:44:36.102Z,100889.41
2023-03-19T09:47:10.592Z,100857.69
2023-03-19T09:49:40.624Z,100890.22
2023-03-19T09:52:15.926Z,100879.41
2023-03-19T09:54:46.302Z,100872.50
2023-03-19T09:57:15.108Z,100885.66
2023-03-19T09:59:45.453Z,100891.06
2023-03-19T10:02:30.459Z,100890.03
2023-03-19T10:05:05.426Z,100850.00
2023-03-19T10:07:43.525Z,100891.72
2023-03-19T10:10:28.953Z,100856.66
2023-03-19T10:13:00.741Z,100844.78
2023-03-19T10:15:30.096Z,100877.09
2023-03-19T10:17:59.686Z,100874.38
2023-03-19T10:20:34.249Z,100893.59
2023-03-19T10:23:07.051Z,100883.78
2023-03-19T10:25:35.233Z,100896.31
2023-03-19T10:28:09.262Z,100905.28
2023-03-19T10:30:37.265Z,100873.56
2023-03-19T10:33:10.119Z,100904.44
2023-03-19T10:35:40.590Z,100909.69
2023-03-19T10:38:18.058Z,100768.41
2023-03-19T10:40:50.064Z,100909.88
2023-03-19T10:43:18.919Z,100903.59
2023-03-19T10:45:49.153Z,100911.75
2023-03-19T10:48:18.419Z,100903.59
2023-03-19T10:50:49.626Z,100910.91
2023-03-19T10:53:29.531Z,100909.03
2023-03-19T10:55:58.778Z,100910.91
2023-03-19T10:58:27.802Z,100919.91
2023-03-19T11:00:57.996Z,100913.63
2023-03-19T11:03:31.882Z,100916.34
2023-03-19T11:06:07.730Z,100918.03
2023-03-19T11:08:37.580Z,100919.69
2023-03-19T11:11:05.966Z,100915.72
2023-03-19T11:13:35.447Z,100917.81
2023-03-19T11:16:03.372Z,100917.81
2023-03-19T11:18:32.297Z,100917.81
2023-03-19T11:21:02.161Z,100924.09
2023-03-19T11:23:30.590Z,100918.66
2023-03-19T11:26:02.885Z,100923.00
2023-03-19T11:28:33.714Z,100894.84
2023-03-19T11:31:04.769Z,100913.22
2023-03-19T11:33:58.339Z,100912.19
2023-03-19T11:36:28.777Z,100880.69
2023-03-19T11:39:09.449Z,100925.97
2023-03-19T11:41:47.854Z,100934.94
2023-03-19T11:44:16.087Z,100936.59
2023-03-19T11:46:46.260Z,100906.56
2023-03-19T11:49:39.089Z,100931.38
2023-03-19T11:52:12.288Z,100901.97
2023-03-19T11:54:45.344Z,100925.97
2023-03-19T11:57:17.353Z,100908.19
2023-03-19T11:59:54.944Z,100919.47
2023-03-19T12:02:41.912Z,100915.94
2023-03-19T12:05:17.586Z,100925.53
2023-03-19T12:07:47.634Z,100910.50
2023-03-19T12:10:30.117Z,100912.78
2023-03-19T12:13:04.801Z,100930.13
2023-03-19T12:15:36.028Z,100916.13
2023-03-19T12:18:09.214Z,100807.03
2023-03-19T12:20:41.632Z,100920.09
2023-03-19T12:23:14.993Z,100913.63
2023-03-19T12:25:47.339Z,100919.25
2023-03-19T12:28:19.423Z,100898.81
2023-03-19T12:30:50.683Z,100909.25
2023-03-19T12:33:27.898Z,100906.97
2023-03-19T12:35:56.995Z,100919.06
2023-03-19T12:38:26.848Z,100916.97
2023-03-19T12:40:58.141Z,100918.84
2023-03-19T12:43:29.118Z,100918.03
2023-03-19T12:45:58.542Z,100897.13
2023-03-19T12:48:28.237Z,100919.91
2023-03-19T12:50:58.509Z,100918.03
2023-03-19T12:53:31.928Z,100919.06
2023-03-19T12:56:01.274Z,100918.22
2023-03-19T12:58:38.707Z,100892.78
2023-03-19T13:01:09.108Z,100913.63
2023-03-19T13:03:40.136Z,100926.38
2023-03-19T13:06:09.979Z,100895.50
2023-03-19T13:08:39.312Z,100920.09
2023-03-19T13:11:11.861Z,100931.78
2023-03-19T13:13:43.727Z,100925.53
2023-03-19T13:16:17.489Z,100920.94
2023-03-19T13:18:47.783Z,100930.13
2023-03-19T13:21:23.041Z,100923.84
2023-03-19T13:23:52.908Z,100912.19
2023-03-19T13:26:20.988Z,100916.53
2023-03-19T13:29:01.597Z,100916.53
2023-03-19T13:31:29.686Z,100920.28
2023-03-19T13:34:03.034Z,100916.75
2023-03-19T13:36:31.751Z,100916.75
2023-03-19T13:39:00.627Z,100917.81
2023-03-19T13:41:54.871Z,100917.59
2023-03-19T13:44:40.463Z,100903.59
2023-03-19T13:47:38.834Z,100898.19
2023-03-19T13:50:24.605Z,100900.50
2023-03-19T13:52:53.542Z,100911.31
2023-03-19T13:55:35.156Z,100891.06
2023-03-19T13:58:38.073Z,100885.44
2023-03-19T14:01:07.907Z,100910.50
2023-03-19T14:03:36.737Z,100909.69
2023-03-19T14:06:05.122Z,100915.09
2023-03-19T14:08:34.596Z,100914.88
2023-03-19T14:11:03.608Z,100885.44
2023-03-19T14:13:33.555Z,100910.28
2023-03-19T14:16:09.431Z,100912.16
2023-03-19T14:18:40.991Z,100895.47
2023-03-19T14:21:13.011Z,100909.44
2023-03-19T14:23:44.147Z,100901.09
2023-03-19T14:26:16.365Z,100913.84
2023-03-19T14:28:58.877Z,100913.00
2023-03-19T14:31:37.020Z,100919.25
2023-03-19T14:34:09.118Z,100913.00
2023-03-19T14:36:37.303Z,100913.84
2023-03-19T14:39:08.731Z,100917.38
2023-03-19T14:41:40.426Z,100913.44
2023-03-19T14:44:51.195Z,100923.84
2023-03-19T14:47:29.759Z,100868.34
2023-03-19T14:50:28.785Z,100929.28
2023-03-19T14:52:59.673Z,100927.59
2023-03-19T14:55:34.404Z,100910.50
2023-03-19T14:58:02.599Z,100930.31
2023-03-19T15:00:31.294Z,100938.47
2023-03-19T15:03:01.173Z,100932.00
2023-03-19T15:05:31.454Z,100929.28
2023-03-19T15:08:01.522Z,100930.31
2023-03-19T15:10:31.399Z,100886.09
2023-03-19T15:13:19.991Z,100907.78
2023-03-19T15:16:06.524Z,100904.44
2023-03-19T15:18:36.783Z,100947.44
2023-03-19T15:21:05.433Z,100944.72
2023-03-19T15:23:34.753Z,100934.31
2023-03-19T15:26:08.835Z,100913.00
2023-03-19T15:28:46.772Z,100949.75
2023-03-19T15:31:37.453Z,100953.72
2023-03-19T15:34:20.113Z,100950.81
2023-03-19T15:36:48.650Z,100962.28
2023-03-19T15:39:17.028Z,100951.44
2023-03-19T15:41:46.911Z,100920.31
2023-03-19T15:44:17.148Z,100952.69
2023-03-19T15:46:46.763Z,100953.50
2023-03-19T15:49:15.907Z,100941.63
2023-03-19T15:51:43.792Z,100954.34
2023-03-19T15:54:11.722Z,100952.88
2023-03-19T15:56:39.889Z,100958.09
2023-03-19T15:59:07.783Z,100958.94
2023-03-19T16:01:36.115Z,100953.50
2023-03-19T16:04:06.930Z,100963.53
2023-03-19T16:06:37.719Z,100968.13
2023-03-19T16:09:14.561Z,100975.44
2023-03-19T16:11:43.651Z,100973.56
2023-03-19T16:14:12.900Z,100979.00
2023-03-19T16:16:41.648Z,100985.44
2023-03-19T16:19:35.957Z,100989.00
2023-03-19T16:22:04.974Z,100999.03
2023-03-19T16:24:36.113Z,100993.59
2023-03-19T16:27:05.139Z,100976.06
2023-03-19T16:29:35.204Z,100998.00
2023-03-19T16:32:04.186Z,100993.84
2023-03-19T16:34:38.556Z,100994.88
2023-03-19T16:37:27.967Z,100996.31
2023-03-19T16:39:56.197Z,100995.47
2023-03-19T16:42:31.686Z,100993.59
2023-03-19T16:44:59.745Z,100998.19
2023-03-19T16:47:27.924Z,100994.03
2023-03-19T16:49:57.169Z,100998.19
2023-03-19T16:52:25.545Z,100998.41
2023-03-19T16:54:53.417Z,101002.81
2023-03-19T16:57:22.063Z,100995.47
2023-03-19T16:59:50.009Z,101009.06
2023-03-19T17:02:18.561Z,100999.25
2023-03-19T17:04:46.651Z,101005.28
2023-03-19T17:07:16.269Z,101017.00
2023-03-19T17:09:44.188Z,101013.44
2023-03-19T17:12:15.412Z,101015.31
2023-03-19T17:14:43.338Z,101020.75
2023-03-19T17:17:16.438Z,101026.19
2023-03-19T17:19:44.395Z,101030.75
2023-03-19T17:22:13.130Z,101038.72
2023-03-19T17:24:42.762Z,101047.69
2023-03-19T17:27:11.007Z,101039.75
2023-03-19T17:29:38.939Z,101057.72
2023-03-19T17:32:07.075Z,101052.28
2023-03-19T17:34:36.378Z,101051.44
2023-03-19T17:37:04.797Z,101065.03
2023-03-19T17:39:32.964Z,101067.13
2023-03-19T17:42:02.385Z,101073.16
2023-03-19T17:44:30.295Z,101080.28
2023-03-19T17:46:58.519Z,101074.00
2023-03-19T17:49:28.911Z,101084.03
2023-03-19T17:51:56.985Z,101093.00
2023-03-19T17:54:26.759Z,101085.91
2023-03-19T17:56:55.001Z,101092.16
2023-03-19T17:59:24.434Z,101093.22
2023-03-19T18:01:52.333Z,101098.44
2023-03-19T18:04:21.078Z,101098.63
2023-03-19T18:06:50.306Z,101102.19
2023-03-19T18:09:19.666Z,101103.03
2023-03-19T18:11:47.563Z,101106.16
2023-03-19T18:14:15.513Z,101114.94
2023-03-19T18:16:45.436Z,101115.75
2023-03-19T18:19:19.764Z,101104.91
2023-03-19T18:21:47.621Z,101117.88
2023-03-19T18:24:15.574Z,101118.72
2023-03-19T18:26:43.794Z,101125.78
2023-03-19T18:29:11.721Z,101131.22
2023-03-19T18:31:41.419Z,101129.56
2023-03-19T18:34:12.314Z,101138.56
2023-03-19T18:36:40.507Z,101140.44
2023-03-19T18:39:08.688Z,101145.84
2023-03-19T18:41:36.622Z,101139.59
2023-03-19T18:44:04.795Z,101143.34
2023-03-19T18:46:33.452Z,101151.28
2023-03-19T18:49:02.202Z,101154.84
2023-03-19T18:51:31.855Z,101144.19
2023-03-19T18:53:59.942Z,101150.44
2023-03-19T18:56:29.712Z,101156.72
2023-03-19T18:58:58.539Z,101142.28
2023-03-19T19:01:26.496Z,101152.13
2023-03-19T19:03:54.558Z,101155.03
2023-03-19T19:06:33.328Z,101158.59
2023-03-19T19:09:13.489Z,101164.88
2023-03-19T19:11:41.674Z,101164.88
2023-03-19T19:14:11.695Z,101171.94
2023-03-19T19:16:40.477Z,101161.50
2023-03-19T19:19:12.467Z,101171.31
2023-03-19T19:21:40.437Z,101173.84
2023-03-19T19:24:08.998Z,101181.16
2023-03-19T19:26:38.607Z,101177.59
2023-03-19T19:29:06.503Z,101183.03
2023-03-19T19:31:35.612Z,101183.88
2023-03-19T19:34:03.524Z,101189.28
2023-03-19T19:36:31.748Z,101192.84
2023-03-19T19:38:59.718Z,101193.88
2023-03-19T19:41:27.590Z,101193.03
2023-03-19T19:43:59.363Z,101194.91
2023-03-19T19:46:27.571Z,101199.31
2023-03-19T19:48:55.670Z,101211.00
2023-03-19T19:51:24.269Z,101210.19
2023-03-19T19:53:52.297Z,101215.59
2023-03-19T19:56:21.528Z,101212.06
2023-03-19T19:58:50.077Z,101221.03
2023-03-19T20:01:20.256Z,101225.63
2023-03-19T20:03:48.391Z,101232.94
2023-03-19T20:06:16.361Z,101233.78
2023-03-19T20:08:44.439Z,101236.47
2023-03-19T20:11:20.124Z,101234.81
2023-03-19T20:13:51.472Z,101232.94
2023-03-19T20:16:20.958Z,101242.75
2023-03-19T20:18:50.989Z,101248.19
2023-03-19T20:21:18.922Z,101258.19
2023-03-19T20:23:47.560Z,101255.50
2023-03-19T20:26:16.181Z,101254.66
2023-03-19T20:28:44.632Z,101262.78
2023-03-19T20:31:17.137Z,101261.94
2023-03-19T20:33:46.485Z,101263.63
2023-03-19T20:36:15.129Z,101216.28
2023-03-19T20:38:43.416Z,101265.50
2023-03-19T20:41:18.242Z,101274.50
2023-03-19T20:43:46.433Z,101278.25
2023-03-19T20:46:15.280Z,101290.78
2023-03-19T20:48:43.496Z,101286.19
2023-03-19T20:51:13.171Z,101295.38
2023-03-19T20:53:41.133Z,101291.81
2023-03-19T20:56:12.153Z,101299.97
2023-03-19T20:58:40.458Z,101300.81
2023-03-19T21:01:08.619Z,101300.81
2023-03-19T21:03:36.553Z,101310.63
2023-03-19T21:06:06.032Z,101313.53
2023-03-19T21:08:37.218Z,101315.22
2023-03-19T21:11:05.451Z,101313.94
2023-03-19T21:13:33.323Z,101310.41
2023-03-19T21:16:02.002Z,101325.25
2023-03-19T21:18:30.305Z,101328.13
2023-03-19T21:20:58.220Z,101328.78
2023-03-19T21:23:28.080Z,101329.81
2023-03-19T21:25:57.446Z,101324.19
2023-03-19T21:28:27.185Z,101330.47
2023-03-19T21:30:55.115Z,101333.38
2023-03-19T21:33:24.463Z,101331.50
2023-03-19T21:35:52.816Z,101337.97
2023-03-19T21:38:21.727Z,101344.25
2023-03-19T21:40:49.858Z,101338.81
2023-03-19T21:43:21.468Z,101204.50
2023-03-19T21:45:49.652Z,101346.13
2023-03-19T21:48:28.454Z,101337.78
2023-03-19T21:50:56.804Z,101345.06
2023-03-19T21:53:24.870Z,101335.91
2023-03-19T21:55:53.219Z,101332.31
2023-03-19T21:58:26.628Z,101338.63
2023-03-19T22:00:54.540Z,101337.78
2023-03-19T22:03:22.773Z,101336.94
2023-03-19T22:05:51.308Z,101337.13
2023-03-19T22:08:20.389Z,101342.56
2023-03-19T22:10:49.737Z,101293.97
2023-03-19T22:13:19.501Z,101346.13
2023-03-19T22:15:49.322Z,101350.50
2023-03-19T22:18:17.484Z,101358.66
2023-03-19T22:20:45.459Z,101360.53
2023-03-19T22:23:13.672Z,101363.25
2023-03-19T22:25:42.636Z,101333.88
2023-03-19T22:28:14.672Z,101355.06
2023-03-19T22:30:42.626Z,101374.09
2023-03-19T22:33:14.727Z,101374.94
2023-03-19T22:35:43.060Z,101374.09
2023-03-19T22:38:11.542Z,101371.38
2023-03-19T22:40:39.758Z,101376.81
2023-03-19T22:43:13.940Z,101379.34
2023-03-19T22:45:41.915Z,101374.09
2023-03-19T22:48:10.410Z,101384.13
2023-03-19T22:50:40.395Z,101386.00
2023-03-19T22:53:17.339Z,101378.44
2023-03-19T22:55:45.229Z,101387.03
2023-03-19T22:58:13.417Z,101383.28
2023-03-19T23:00:41.329Z,101386.19
2023-03-19T23:03:10.308Z,101332.13
2023-03-19T23:05:38.566Z,101387.88
2023-03-19T23:08:08.370Z,101386.84
2023-03-19T23:10:36.921Z,101393.31
2023-03-19T23:13:04.804Z,101390.38
2023-03-19T23:15:34.789Z,101395.81
2023-03-19T23:18:03.902Z,101403.97
2023-03-19T23:20:33.913Z,101393.06
2023-03-19T23:23:02.271Z,101405.66
2023-03-19T23:25:31.827Z,101405.84
2023-03-19T23:28:01.098Z,101404.16
2023-03-19T23:30:30.204Z,101413.16
2023-03-19T23:32:58.869Z,101419.41
2023-03-19T23:35:28.018Z,101414.41
2023-03-19T23:37:56.998Z,101421.28
2023-03-19T23:40:25.698Z,101425.03
2023-03-19T23:42:55.764Z,101423.16
2023-03-19T23:45:29.144Z,101428.59
2023-03-19T23:47:58.016Z,101432.56
2023-03-19T23:50:25.947Z,101438.63
2023-03-19T23:52:53.887Z,101434.22
2023-03-19T23:55:22.447Z,101445.91
2023-03-19T23:57:50.641Z,101445.91
